sensor_id;sensor_type;location;lat;lon;timestamp;P1;durP1;ratioP1;P2;durP2;ratioP2
35969;SDS011;22448;51.298;6.430;2022-12-18T00:01:22;49.50;;;22.95;;
35969;SDS011;22448;51.298;6.430;2022-12-18T00:03:54;50.15;;;21.35;;
35969;SDS011;22448;51.298;6.430;2022-12-18T00:06:22;51.55;;;23.58;;
35969;SDS011;22448;51.298;6.430;2022-12-18T00:08:51;50.20;;;21.58;;
35969;SDS011;22448;51.298;6.430;2022-12-18T00:11:20;46.42;;;20.88;;
35969;SDS011;22448;51.298;6.430;2022-12-18T00:13:49;51.97;;;21.58;;
35969;SDS011;22448;51.298;6.430;2022-12-18T00:16:17;46.58;;;21.05;;
35969;SDS011;22448;51.298;6.430;2022-12-18T00:18:47;49.05;;;21.35;;
35969;SDS011;22448;51.298;6.430;2022-12-18T00:21:16;45.25;;;20.20;;
35969;SDS011;22448;51.298;6.430;2022-12-18T00:23:51;41.83;;;19.92;;
35969;SDS011;22448;51.298;6.430;2022-12-18T08:02:31;40.63;;;17.90;;
35969;SDS011;22448;51.298;6.430;2022-12-18T08:04:58;37.47;;;17.23;;
35969;SDS011;22448;51.298;6.430;2022-12-18T08:07:25;41.13;;;19.05;;
35969;SDS011;22448;51.298;6.430;2022-12-18T08:09:52;41.17;;;18.10;;
35969;SDS011;22448;51.298;6.430;2022-12-18T08:12:19;34.22;;;18.08;;
35969;SDS011;22448;51.298;6.430;2022-12-18T08:14:46;36.83;;;16.55;;
35969;SDS011;22448;51.298;6.430;2022-12-18T08:17:13;35.30;;;17.23;;
35969;SDS011;22448;51.298;6.430;2022-12-18T08:19:40;41.10;;;19.05;;
35969;SDS011;22448;51.298;6.430;2022-12-18T08:22:07;37.13;;;16.88;;
35969;SDS011;22448;51.298;6.430;2022-12-18T08:24:34;40.55;;;17.58;;
35969;SDS011;22448;51.298;6.430;2022-12-18T08:27:00;42.60;;;16.65;;
35969;SDS011;22448;51.298;6.430;2022-12-18T08:29:47;35.95;;;16.20;;
35969;SDS011;22448;51.298;6.430;2022-12-18T08:32:14;34.60;;;17.27;;
35969;SDS011;22448;51.298;6.430;2022-12-18T08:34:41;37.10;;;17.45;;
35969;SDS011;22448;51.298;6.430;2022-12-18T08:37:08;39.17;;;19.23;;
35969;SDS011;22448;51.298;6.430;2022-12-18T08:39:35;31.85;;;16.65;;
35969;SDS011;22448;51.298;6.430;2022-12-18T08:42:02;40.90;;;18.48;;
35969;SDS011;22448;51.298;6.430;2022-12-18T08:44:47;44.65;;;18.70;;
35969;SDS011;22448;51.298;6.430;2022-12-18T08:47:14;36.88;;;16.85;;
35969;SDS011;22448;51.298;6.430;2022-12-18T08:49:41;36.72;;;18.70;;
35969;SDS011;22448;51.298;6.430;2022-12-18T08:52:08;36.20;;;17.35;;
35969;SDS011;22448;51.298;6.430;2022-12-18T08:54:35;36.38;;;18.15;;
35969;SDS011;22448;51.298;6.430;2022-12-18T08:57:02;36.70;;;17.23;;
35969;SDS011;22448;51.298;6.430;2022-12-18T08:59:30;34.03;;;17.05;;
35969;SDS011;22448;51.298;6.430;2022-12-18T09:01:57;41.20;;;20.13;;
35969;SDS011;22448;51.298;6.430;2022-12-18T09:04:24;34.45;;;17.50;;
35969;SDS011;22448;51.298;6.430;2022-12-18T09:06:51;37.38;;;18.23;;
35969;SDS011;22448;51.298;6.430;2022-12-18T09:09:17;42.55;;;19.08;;
35969;SDS011;22448;51.298;6.430;2022-12-18T09:11:44;49.47;;;21.42;;
35969;SDS011;22448;51.298;6.430;2022-12-18T09:14:11;39.45;;;18.98;;
35969;SDS011;22448;51.298;6.430;2022-12-18T09:16:38;43.15;;;19.77;;
35969;SDS011;22448;51.298;6.430;2022-12-18T09:19:05;38.50;;;17.65;;
35969;SDS011;22448;51.298;6.430;2022-12-18T09:21:33;43.20;;;21.95;;
35969;SDS011;22448;51.298;6.430;2022-12-18T09:24:03;38.97;;;19.27;;
35969;SDS011;22448;51.298;6.430;2022-12-18T09:26:34;47.85;;;21.92;;
35969;SDS011;22448;51.298;6.430;2022-12-18T09:29:01;37.53;;;18.58;;
35969;SDS011;22448;51.298;6.430;2022-12-18T09:31:29;39.85;;;19.98;;
35969;SDS011;22448;51.298;6.430;2022-12-18T09:33:56;37.30;;;19.13;;
35969;SDS011;22448;51.298;6.430;2022-12-18T09:36:23;42.50;;;20.63;;
35969;SDS011;22448;51.298;6.430;2022-12-18T09:38:50;41.10;;;19.80;;
35969;SDS011;22448;51.298;6.430;2022-12-18T09:41:27;41.75;;;18.92;;
35969;SDS011;22448;51.298;6.430;2022-12-18T09:49:29;42.63;;;20.52;;
35969;SDS011;22448;51.298;6.430;2022-12-18T09:52:03;37.13;;;18.75;;
35969;SDS011;22448;51.298;6.430;2022-12-18T09:54:40;39.10;;;19.90;;
35969;SDS011;22448;51.298;6.430;2022-12-18T09:57:12;46.97;;;21.50;;
35969;SDS011;22448;51.298;6.430;2022-12-18T09:59:41;43.42;;;20.55;;
35969;SDS011;22448;51.298;6.430;2022-12-18T10:02:20;50.05;;;23.15;;
35969;SDS011;22448;51.298;6.430;2022-12-18T10:04:56;38.40;;;19.10;;
35969;SDS011;22448;51.298;6.430;2022-12-18T10:07:33;45.72;;;20.80;;
35969;SDS011;22448;51.298;6.430;2022-12-18T10:10:26;38.13;;;18.40;;
35969;SDS011;22448;51.298;6.430;2022-12-18T10:13:35;49.03;;;22.17;;
35969;SDS011;22448;51.298;6.430;2022-12-18T10:16:13;38.22;;;18.77;;
35969;SDS011;22448;51.298;6.430;2022-12-18T10:21:34;35.63;;;16.75;;
35969;SDS011;22448;51.298;6.430;2022-12-18T10:24:15;55.70;;;23.25;;
35969;SDS011;22448;51.298;6.430;2022-12-18T10:26:52;40.57;;;18.30;;
35969;SDS011;22448;51.298;6.430;2022-12-18T10:29:22;36.25;;;17.92;;
35969;SDS011;22448;51.298;6.430;2022-12-18T10:31:51;33.47;;;18.25;;
35969;SDS011;22448;51.298;6.430;2022-12-18T10:34:18;36.00;;;17.95;;
35969;SDS011;22448;51.298;6.430;2022-12-18T10:36:45;46.00;;;19.88;;
35969;SDS011;22448;51.298;6.430;2022-12-18T10:39:19;40.17;;;19.15;;
35969;SDS011;22448;51.298;6.430;2022-12-18T10:41:49;37.17;;;18.30;;
35969;SDS011;22448;51.298;6.430;2022-12-18T10:44:17;37.72;;;17.70;;
35969;SDS011;22448;51.298;6.430;2022-12-18T10:46:55;40.95;;;19.00;;
35969;SDS011;22448;51.298;6.430;2022-12-18T10:49:47;36.53;;;17.67;;
35969;SDS011;22448;51.298;6.430;2022-12-18T10:52:20;41.85;;;18.42;;
35969;SDS011;22448;51.298;6.430;2022-12-18T10:54:57;40.70;;;18.83;;
35969;SDS011;22448;51.298;6.430;2022-12-18T10:57:32;36.33;;;18.20;;
35969;SDS011;22448;51.298;6.430;2022-12-18T11:00:20;35.40;;;18.35;;
35969;SDS011;22448;51.298;6.430;2022-12-18T11:02:48;37.75;;;17.70;;
35969;SDS011;22448;51.298;6.430;2022-12-18T11:07:59;37.58;;;19.88;;
35969;SDS011;22448;51.298;6.430;2022-12-18T11:10:31;33.45;;;17.17;;
35969;SDS011;22448;51.298;6.430;2022-12-18T11:13:10;39.13;;;18.33;;
35969;SDS011;22448;51.298;6.430;2022-12-18T11:15:45;35.33;;;17.70;;
35969;SDS011;22448;51.298;6.430;2022-12-18T11:20:55;42.95;;;20.80;;
35969;SDS011;22448;51.298;6.430;2022-12-18T11:23:51;41.13;;;19.27;;
35969;SDS011;22448;51.298;6.430;2022-12-18T11:26:20;47.25;;;19.73;;
35969;SDS011;22448;51.298;6.430;2022-12-18T11:29:07;42.38;;;20.08;;
35969;SDS011;22448;51.298;6.430;2022-12-18T11:31:36;39.60;;;18.08;;
35969;SDS011;22448;51.298;6.430;2022-12-18T11:36:55;41.63;;;19.02;;
35969;SDS011;22448;51.298;6.430;2022-12-18T11:39:31;40.83;;;18.52;;
35969;SDS011;22448;51.298;6.430;2022-12-18T11:44:42;41.28;;;19.45;;
35969;SDS011;22448;51.298;6.430;2022-12-18T11:50:28;33.58;;;17.60;;
35969;SDS011;22448;51.298;6.430;2022-12-18T11:53:10;42.85;;;19.27;;
35969;SDS011;22448;51.298;6.430;2022-12-18T11:55:40;54.72;;;22.17;;
35969;SDS011;22448;51.298;6.430;2022-12-18T11:58:27;38.70;;;18.35;;
35969;SDS011;22448;51.298;6.430;2022-12-18T12:01:13;47.58;;;20.80;;
35969;SDS011;22448;51.298;6.430;2022-12-18T12:06:52;43.10;;;20.58;;
35969;SDS011;22448;51.298;6.430;2022-12-18T12:12:51;39.92;;;18.77;;
35969;SDS011;22448;51.298;6.430;2022-12-18T12:21:03;35.03;;;18.10;;
35969;SDS011;22448;51.298;6.430;2022-12-18T12:26:28;40.40;;;19.48;;
35969;SDS011;22448;51.298;6.430;2022-12-18T12:32:54;40.65;;;19.70;;
35969;SDS011;22448;51.298;6.430;2022-12-18T12:40:47;38.60;;;19.50;;
35969;SDS011;22448;51.298;6.430;2022-12-18T12:46:17;36.65;;;19.13;;
35969;SDS011;22448;51.298;6.430;2022-12-18T12:51:53;34.90;;;18.83;;
35969;SDS011;22448;51.298;6.430;2022-12-18T12:54:31;39.25;;;20.02;;
35969;SDS011;22448;51.298;6.430;2022-12-18T12:57:11;35.40;;;18.92;;
35969;SDS011;22448;51.298;6.430;2022-12-18T13:05:30;38.20;;;20.35;;
35969;SDS011;22448;51.298;6.430;2022-12-18T13:08:24;38.63;;;19.08;;
35969;SDS011;22448;51.298;6.430;2022-12-18T13:10:58;40.42;;;20.05;;
35969;SDS011;22448;51.298;6.430;2022-12-18T13:13:52;36.90;;;19.08;;
35969;SDS011;22448;51.298;6.430;2022-12-18T13:16:22;39.60;;;19.13;;
35969;SDS011;22448;51.298;6.430;2022-12-18T13:18:51;44.45;;;20.48;;
35969;SDS011;22448;51.298;6.430;2022-12-18T13:21:29;43.20;;;21.35;;
35969;SDS011;22448;51.298;6.430;2022-12-18T13:27:05;30.93;;;15.30;;
35969;SDS011;22448;51.298;6.430;2022-12-18T13:35:50;42.83;;;21.42;;
35969;SDS011;22448;51.298;6.430;2022-12-18T13:46:27;43.22;;;21.13;;
35969;SDS011;22448;51.298;6.430;2022-12-18T13:51:24;42.10;;;21.40;;
35969;SDS011;22448;51.298;6.430;2022-12-18T13:54:02;45.72;;;21.60;;
35969;SDS011;22448;51.298;6.430;2022-12-18T13:56:43;48.72;;;21.35;;
35969;SDS011;22448;51.298;6.430;2022-12-18T13:59:20;43.50;;;21.75;;
35969;SDS011;22448;51.298;6.430;2022-12-18T14:01:58;49.20;;;21.25;;
35969;SDS011;22448;51.298;6.430;2022-12-18T14:04:46;44.10;;;21.38;;
35969;SDS011;22448;51.298;6.430;2022-12-18T14:07:16;45.83;;;21.27;;
35969;SDS011;22448;51.298;6.430;2022-12-18T14:09:47;45.03;;;21.90;;
35969;SDS011;22448;51.298;6.430;2022-12-18T14:12:24;47.17;;;21.77;;
35969;SDS011;22448;51.298;6.430;2022-12-18T14:17:42;46.03;;;23.27;;
35969;SDS011;22448;51.298;6.430;2022-12-18T14:20:13;48.25;;;22.80;;
35969;SDS011;22448;51.298;6.430;2022-12-18T14:22:48;47.85;;;22.90;;
35969;SDS011;22448;51.298;6.430;2022-12-18T14:25:17;51.80;;;21.63;;
35969;SDS011;22448;51.298;6.430;2022-12-18T14:27:53;48.63;;;22.40;;
35969;SDS011;22448;51.298;6.430;2022-12-18T14:30:40;43.47;;;21.77;;
35969;SDS011;22448;51.298;6.430;2022-12-18T14:33:10;54.35;;;24.05;;
35969;SDS011;22448;51.298;6.430;2022-12-18T14:35:40;45.53;;;22.45;;
35969;SDS011;22448;51.298;6.430;2022-12-18T14:38:30;45.65;;;22.15;;
35969;SDS011;22448;51.298;6.430;2022-12-18T14:41:03;52.72;;;23.48;;
35969;SDS011;22448;51.298;6.430;2022-12-18T14:43:38;51.97;;;23.65;;
35969;SDS011;22448;51.298;6.430;2022-12-18T14:48:56;52.28;;;23.73;;
35969;SDS011;22448;51.298;6.430;2022-12-18T14:51:26;51.42;;;23.90;;
35969;SDS011;22448;51.298;6.430;2022-12-18T14:54:00;50.17;;;23.98;;
35969;SDS011;22448;51.298;6.430;2022-12-18T14:56:30;50.90;;;23.40;;
35969;SDS011;22448;51.298;6.430;2022-12-18T14:59:00;49.47;;;24.40;;
35969;SDS011;22448;51.298;6.430;2022-12-18T15:01:39;50.55;;;24.65;;
35969;SDS011;22448;51.298;6.430;2022-12-18T15:04:26;44.42;;;21.42;;
35969;SDS011;22448;51.298;6.430;2022-12-18T15:09:38;47.20;;;23.73;;
35969;SDS011;22448;51.298;6.430;2022-12-18T15:12:20;53.05;;;24.75;;
35969;SDS011;22448;51.298;6.430;2022-12-18T15:14:54;53.15;;;23.73;;
35969;SDS011;22448;51.298;6.430;2022-12-18T15:17:21;51.70;;;24.38;;
35969;SDS011;22448;51.298;6.430;2022-12-18T15:19:52;53.88;;;24.70;;
35969;SDS011;22448;51.298;6.430;2022-12-18T15:22:30;50.70;;;23.85;;
35969;SDS011;22448;51.298;6.430;2022-12-18T15:25:01;52.08;;;25.17;;
35969;SDS011;22448;51.298;6.430;2022-12-18T15:27:33;43.42;;;21.63;;
35969;SDS011;22448;51.298;6.430;2022-12-18T15:32:35;51.40;;;24.45;;
35969;SDS011;22448;51.298;6.430;2022-12-18T15:35:11;46.13;;;22.40;;
35969;SDS011;22448;51.298;6.430;2022-12-18T15:37:42;50.28;;;24.88;;
35969;SDS011;22448;51.298;6.430;2022-12-18T15:40:15;51.50;;;24.13;;
35969;SDS011;22448;51.298;6.430;2022-12-18T15:42:45;51.53;;;24.33;;
35969;SDS011;22448;51.298;6.430;2022-12-18T15:45:32;53.83;;;24.25;;
35969;SDS011;22448;51.298;6.430;2022-12-18T15:47:59;51.25;;;24.30;;
35969;SDS011;22448;51.298;6.430;2022-12-18T15:50:26;54.97;;;26.60;;
35969;SDS011;22448;51.298;6.430;2022-12-18T15:52:54;54.15;;;25.15;;
35969;SDS011;22448;51.298;6.430;2022-12-18T15:55:22;52.28;;;25.75;;
35969;SDS011;22448;51.298;6.430;2022-12-18T15:58:09;54.63;;;26.88;;
35969;SDS011;22448;51.298;6.430;2022-12-18T16:00:38;51.63;;;25.10;;
35969;SDS011;22448;51.298;6.430;2022-12-18T16:03:06;57.90;;;27.55;;
35969;SDS011;22448;51.298;6.430;2022-12-18T16:05:33;51.25;;;26.48;;
35969;SDS011;22448;51.298;6.430;2022-12-18T16:07:59;51.90;;;26.27;;
35969;SDS011;22448;51.298;6.430;2022-12-18T16:10:26;49.38;;;25.40;;
35969;SDS011;22448;51.298;6.430;2022-12-18T16:12:53;58.53;;;26.15;;
35969;SDS011;22448;51.298;6.430;2022-12-18T16:15:20;67.13;;;30.13;;
35969;SDS011;22448;51.298;6.430;2022-12-18T16:17:50;55.00;;;26.85;;
35969;SDS011;22448;51.298;6.430;2022-12-18T16:20:19;60.80;;;27.63;;
35969;SDS011;22448;51.298;6.430;2022-12-18T16:22:48;51.58;;;25.98;;
35969;SDS011;22448;51.298;6.430;2022-12-18T16:25:22;61.90;;;27.85;;
35969;SDS011;22448;51.298;6.430;2022-12-18T16:27:51;53.75;;;26.67;;
35969;SDS011;22448;51.298;6.430;2022-12-18T16:30:21;57.53;;;27.85;;
35969;SDS011;22448;51.298;6.430;2022-12-18T16:32:51;55.95;;;26.38;;
35969;SDS011;22448;51.298;6.430;2022-12-18T16:35:17;59.95;;;27.25;;
35969;SDS011;22448;51.298;6.430;2022-12-18T16:37:44;62.30;;;28.15;;
35969;SDS011;22448;51.298;6.430;2022-12-18T16:40:12;56.00;;;28.40;;
35969;SDS011;22448;51.298;6.430;2022-12-18T16:42:41;64.05;;;28.88;;
35969;SDS011;22448;51.298;6.430;2022-12-18T16:45:09;56.42;;;28.23;;
35969;SDS011;22448;51.298;6.430;2022-12-18T16:47:38;58.95;;;27.65;;
35969;SDS011;22448;51.298;6.430;2022-12-18T16:50:05;55.42;;;27.98;;
35969;SDS011;22448;51.298;6.430;2022-12-18T16:52:32;55.47;;;27.27;;
35969;SDS011;22448;51.298;6.430;2022-12-18T16:55:00;58.60;;;27.15;;
35969;SDS011;22448;51.298;6.430;2022-12-18T16:57:27;61.60;;;29.17;;
35969;SDS011;22448;51.298;6.430;2022-12-18T16:59:53;66.45;;;30.50;;
35969;SDS011;22448;51.298;6.430;2022-12-18T17:04:54;62.70;;;27.63;;
35969;SDS011;22448;51.298;6.430;2022-12-18T17:07:23;63.15;;;28.30;;
35969;SDS011;22448;51.298;6.430;2022-12-18T17:09:51;60.88;;;28.83;;
35969;SDS011;22448;51.298;6.430;2022-12-18T17:12:19;62.92;;;29.55;;
35969;SDS011;22448;51.298;6.430;2022-12-18T17:14:46;60.15;;;28.65;;
35969;SDS011;22448;51.298;6.430;2022-12-18T17:17:13;61.78;;;29.23;;
35969;SDS011;22448;51.298;6.430;2022-12-18T17:19:49;57.20;;;26.40;;
35969;SDS011;22448;51.298;6.430;2022-12-18T17:22:17;58.10;;;29.13;;
35969;SDS011;22448;51.298;6.430;2022-12-18T17:24:45;59.50;;;28.38;;
35969;SDS011;22448;51.298;6.430;2022-12-18T17:27:13;61.97;;;28.20;;
35969;SDS011;22448;51.298;6.430;2022-12-18T17:29:40;69.20;;;29.25;;
35969;SDS011;22448;51.298;6.430;2022-12-18T17:32:13;61.50;;;29.42;;
35969;SDS011;22448;51.298;6.430;2022-12-18T17:34:41;61.33;;;28.27;;
35969;SDS011;22448;51.298;6.430;2022-12-18T17:37:07;63.72;;;30.13;;
35969;SDS011;22448;51.298;6.430;2022-12-18T17:39:34;59.67;;;28.40;;
35969;SDS011;22448;51.298;6.430;2022-12-18T17:42:01;64.97;;;30.50;;
35969;SDS011;22448;51.298;6.430;2022-12-18T17:44:28;61.85;;;28.58;;
35969;SDS011;22448;51.298;6.430;2022-12-18T17:46:54;63.30;;;30.38;;
35969;SDS011;22448;51.298;6.430;2022-12-18T17:49:21;63.83;;;29.92;;
35969;SDS011;22448;51.298;6.430;2022-12-18T17:51:48;64.10;;;30.55;;
35969;SDS011;22448;51.298;6.430;2022-12-18T17:54:14;69.20;;;31.98;;
35969;SDS011;22448;51.298;6.430;2022-12-18T17:56:41;63.40;;;30.48;;
35969;SDS011;22448;51.298;6.430;2022-12-18T17:59:09;65.72;;;30.48;;
35969;SDS011;22448;51.298;6.430;2022-12-18T18:01:36;67.22;;;31.77;;
35969;SDS011;22448;51.298;6.430;2022-12-18T18:04:09;60.22;;;28.67;;
35969;SDS011;22448;51.298;6.430;2022-12-18T18:06:37;68.35;;;32.15;;
35969;SDS011;22448;51.298;6.430;2022-12-18T18:09:05;65.05;;;32.92;;
35969;SDS011;22448;51.298;6.430;2022-12-18T18:11:41;70.20;;;31.60;;
35969;SDS011;22448;51.298;6.430;2022-12-18T18:14:27;66.13;;;31.90;;
35969;SDS011;22448;51.298;6.430;2022-12-18T18:16:53;67.18;;;31.98;;
35969;SDS011;22448;51.298;6.430;2022-12-18T18:19:23;69.97;;;31.00;;
35969;SDS011;22448;51.298;6.430;2022-12-18T18:21:51;68.45;;;31.52;;
35969;SDS011;22448;51.298;6.430;2022-12-18T18:24:20;61.55;;;30.25;;
35969;SDS011;22448;51.298;6.430;2022-12-18T18:26:48;73.63;;;34.72;;
35969;SDS011;22448;51.298;6.430;2022-12-18T18:29:19;75.28;;;32.75;;
35969;SDS011;22448;51.298;6.430;2022-12-18T18:34:16;69.13;;;32.50;;
35969;SDS011;22448;51.298;6.430;2022-12-18T18:36:45;74.32;;;33.58;;
35969;SDS011;22448;51.298;6.430;2022-12-18T18:39:12;67.78;;;32.38;;
35969;SDS011;22448;51.298;6.430;2022-12-18T18:41:40;76.65;;;35.50;;
35969;SDS011;22448;51.298;6.430;2022-12-18T18:44:12;74.85;;;33.42;;
35969;SDS011;22448;51.298;6.430;2022-12-18T18:46:38;71.07;;;33.30;;
35969;SDS011;22448;51.298;6.430;2022-12-18T18:49:05;74.57;;;34.45;;
35969;SDS011;22448;51.298;6.430;2022-12-18T18:51:32;69.93;;;32.65;;
35969;SDS011;22448;51.298;6.430;2022-12-18T18:54:00;67.60;;;33.20;;
35969;SDS011;22448;51.298;6.430;2022-12-18T18:56:27;72.07;;;34.17;;
35969;SDS011;22448;51.298;6.430;2022-12-18T18:59:15;67.60;;;32.58;;
35969;SDS011;22448;51.298;6.430;2022-12-18T19:01:42;70.20;;;32.65;;
35969;SDS011;22448;51.298;6.430;2022-12-18T19:04:09;69.82;;;34.45;;
35969;SDS011;22448;51.298;6.430;2022-12-18T19:06:36;70.50;;;32.58;;
35969;SDS011;22448;51.298;6.430;2022-12-18T19:09:03;68.13;;;32.75;;
35969;SDS011;22448;51.298;6.430;2022-12-18T19:11:31;71.90;;;34.42;;
35969;SDS011;22448;51.298;6.430;2022-12-18T19:14:17;68.65;;;32.17;;
35969;SDS011;22448;51.298;6.430;2022-12-18T19:16:44;69.55;;;33.10;;
35969;SDS011;22448;51.298;6.430;2022-12-18T19:19:12;68.55;;;33.63;;
35969;SDS011;22448;51.298;6.430;2022-12-18T19:21:39;78.55;;;32.63;;
35969;SDS011;22448;51.298;6.430;2022-12-18T19:24:06;73.53;;;33.67;;
35969;SDS011;22448;51.298;6.430;2022-12-18T19:26:35;71.25;;;33.92;;
35969;SDS011;22448;51.298;6.430;2022-12-18T19:29:03;73.95;;;34.30;;
35969;SDS011;22448;51.298;6.430;2022-12-18T19:31:31;73.60;;;33.55;;
35969;SDS011;22448;51.298;6.430;2022-12-18T19:34:02;81.68;;;33.95;;
35969;SDS011;22448;51.298;6.430;2022-12-18T19:36:30;72.40;;;33.30;;
35969;SDS011;22448;51.298;6.430;2022-12-18T19:38:59;67.53;;;32.80;;
35969;SDS011;22448;51.298;6.430;2022-12-18T19:41:27;75.72;;;33.90;;
35969;SDS011;22448;51.298;6.430;2022-12-18T19:43:59;75.27;;;32.30;;
35969;SDS011;22448;51.298;6.430;2022-12-18T19:46:33;72.70;;;34.92;;
35969;SDS011;22448;51.298;6.430;2022-12-18T19:49:00;73.43;;;33.83;;
35969;SDS011;22448;51.298;6.430;2022-12-18T19:51:28;70.00;;;30.95;;
35969;SDS011;22448;51.298;6.430;2022-12-18T19:53:57;75.03;;;35.30;;
35969;SDS011;22448;51.298;6.430;2022-12-18T19:56:28;76.72;;;35.13;;
35969;SDS011;22448;51.298;6.430;2022-12-18T19:58:56;79.97;;;35.60;;
35969;SDS011;22448;51.298;6.430;2022-12-18T20:01:24;71.80;;;33.70;;
35969;SDS011;22448;51.298;6.430;2022-12-18T20:03:52;83.40;;;34.88;;
35969;SDS011;22448;51.298;6.430;2022-12-18T20:11:26;78.75;;;34.22;;
35969;SDS011;22448;51.298;6.430;2022-12-18T20:13:54;77.97;;;32.95;;
35969;SDS011;22448;51.298;6.430;2022-12-18T20:16:20;73.68;;;34.15;;
35969;SDS011;22448;51.298;6.430;2022-12-18T20:18:47;77.50;;;36.22;;
35969;SDS011;22448;51.298;6.430;2022-12-18T20:21:14;72.95;;;34.05;;
35969;SDS011;22448;51.298;6.430;2022-12-18T20:23:41;74.13;;;35.00;;
35969;SDS011;22448;51.298;6.430;2022-12-18T20:26:09;76.18;;;34.95;;
35969;SDS011;22448;51.298;6.430;2022-12-18T20:28:36;78.15;;;34.85;;
35969;SDS011;22448;51.298;6.430;2022-12-18T20:31:05;82.57;;;36.83;;
35969;SDS011;22448;51.298;6.430;2022-12-18T20:33:43;78.50;;;35.40;;
35969;SDS011;22448;51.298;6.430;2022-12-18T20:36:15;78.15;;;33.80;;
35969;SDS011;22448;51.298;6.430;2022-12-18T20:38:48;76.07;;;34.10;;
35969;SDS011;22448;51.298;6.430;2022-12-18T20:41:20;80.38;;;35.20;;
35969;SDS011;22448;51.298;6.430;2022-12-18T20:43:48;74.07;;;34.97;;
35969;SDS011;22448;51.298;6.430;2022-12-18T20:46:15;80.32;;;34.78;;
35969;SDS011;22448;51.298;6.430;2022-12-18T20:48:43;80.43;;;36.80;;
35969;SDS011;22448;51.298;6.430;2022-12-18T20:51:14;83.00;;;35.15;;
35969;SDS011;22448;51.298;6.430;2022-12-18T20:56:18;76.78;;;34.40;;
35969;SDS011;22448;51.298;6.430;2022-12-18T20:58:50;75.38;;;34.33;;
35969;SDS011;22448;51.298;6.430;2022-12-18T21:01:21;80.05;;;34.22;;
35969;SDS011;22448;51.298;6.430;2022-12-18T21:03:49;82.72;;;35.55;;
35969;SDS011;22448;51.298;6.430;2022-12-18T21:06:18;76.50;;;35.33;;
35969;SDS011;22448;51.298;6.430;2022-12-18T21:08:46;75.53;;;33.88;;
35969;SDS011;22448;51.298;6.430;2022-12-18T21:11:14;74.47;;;32.80;;
35969;SDS011;22448;51.298;6.430;2022-12-18T21:14:05;80.18;;;35.95;;
35969;SDS011;22448;51.298;6.430;2022-12-18T21:19:03;77.32;;;33.92;;
35969;SDS011;22448;51.298;6.430;2022-12-18T21:21:30;78.10;;;35.88;;
35969;SDS011;22448;51.298;6.430;2022-12-18T21:24:03;87.03;;;37.42;;
35969;SDS011;22448;51.298;6.430;2022-12-18T21:26:31;88.43;;;35.65;;
35969;SDS011;22448;51.298;6.430;2022-12-18T21:28:59;81.90;;;35.33;;
35969;SDS011;22448;51.298;6.430;2022-12-18T21:31:30;86.47;;;36.22;;
35969;SDS011;22448;51.298;6.430;2022-12-18T21:33:59;88.47;;;34.70;;
35969;SDS011;22448;51.298;6.430;2022-12-18T21:36:27;83.30;;;36.95;;
35969;SDS011;22448;51.298;6.430;2022-12-18T21:38:56;82.20;;;36.10;;
35969;SDS011;22448;51.298;6.430;2022-12-18T21:41:24;90.43;;;38.30;;
35969;SDS011;22448;51.298;6.430;2022-12-18T21:44:12;85.93;;;37.25;;
35969;SDS011;22448;51.298;6.430;2022-12-18T21:46:41;77.95;;;33.17;;
35969;SDS011;22448;51.298;6.430;2022-12-18T21:49:10;87.70;;;37.53;;
35969;SDS011;22448;51.298;6.430;2022-12-18T21:51:40;81.38;;;36.92;;
35969;SDS011;22448;51.298;6.430;2022-12-18T21:54:07;91.20;;;37.97;;
35969;SDS011;22448;51.298;6.430;2022-12-18T21:59:40;82.55;;;37.00;;
35969;SDS011;22448;51.298;6.430;2022-12-18T22:02:10;94.38;;;38.15;;
35969;SDS011;22448;51.298;6.430;2022-12-18T22:04:39;84.05;;;37.20;;
35969;SDS011;22448;51.298;6.430;2022-12-18T22:07:07;97.40;;;39.10;;
35969;SDS011;22448;51.298;6.430;2022-12-18T22:09:36;89.43;;;39.63;;
35969;SDS011;22448;51.298;6.430;2022-12-18T22:12:03;89.22;;;39.13;;
35969;SDS011;22448;51.298;6.430;2022-12-18T22:14:31;95.18;;;39.63;;
35969;SDS011;22448;51.298;6.430;2022-12-18T22:16:58;90.25;;;40.28;;
35969;SDS011;22448;51.298;6.430;2022-12-18T22:19:26;96.70;;;41.97;;
35969;SDS011;22448;51.298;6.430;2022-12-18T22:21:53;90.13;;;39.45;;
35969;SDS011;22448;51.298;6.430;2022-12-18T22:24:24;93.60;;;40.60;;
35969;SDS011;22448;51.298;6.430;2022-12-18T22:26:52;96.28;;;40.72;;
35969;SDS011;22448;51.298;6.430;2022-12-18T22:29:27;95.22;;;40.40;;
35969;SDS011;22448;51.298;6.430;2022-12-18T22:32:13;98.38;;;41.17;;
35969;SDS011;22448;51.298;6.430;2022-12-18T22:34:57;97.70;;;41.08;;
35969;SDS011;22448;51.298;6.430;2022-12-18T22:37:41;95.55;;;41.83;;
35969;SDS011;22448;51.298;6.430;2022-12-18T22:40:09;100.75;;;40.15;;
35969;SDS011;22448;51.298;6.430;2022-12-18T22:42:50;97.93;;;41.03;;
35969;SDS011;22448;51.298;6.430;2022-12-18T22:45:18;105.85;;;44.08;;
35969;SDS011;22448;51.298;6.430;2022-12-18T22:47:45;109.30;;;44.35;;
35969;SDS011;22448;51.298;6.430;2022-12-18T22:50:12;98.78;;;41.92;;
35969;SDS011;22448;51.298;6.430;2022-12-18T22:52:39;98.80;;;43.03;;
35969;SDS011;22448;51.298;6.430;2022-12-18T22:55:06;106.38;;;42.10;;
35969;SDS011;22448;51.298;6.430;2022-12-18T22:57:34;104.63;;;44.45;;
35969;SDS011;22448;51.298;6.430;2022-12-18T23:00:03;97.15;;;42.55;;
35969;SDS011;22448;51.298;6.430;2022-12-18T23:02:30;110.75;;;44.80;;
35969;SDS011;22448;51.298;6.430;2022-12-18T23:04:57;100.97;;;44.08;;
35969;SDS011;22448;51.298;6.430;2022-12-18T23:07:24;103.35;;;40.90;;
35969;SDS011;22448;51.298;6.430;2022-12-18T23:09:51;110.63;;;44.95;;
35969;SDS011;22448;51.298;6.430;2022-12-18T23:12:26;106.78;;;44.60;;
35969;SDS011;22448;51.298;6.430;2022-12-18T23:14:53;100.90;;;44.17;;
35969;SDS011;22448;51.298;6.430;2022-12-18T23:17:20;105.50;;;44.63;;
35969;SDS011;22448;51.298;6.430;2022-12-18T23:19:47;113.18;;;44.55;;
35969;SDS011;22448;51.298;6.430;2022-12-18T23:22:15;106.05;;;44.10;;
35969;SDS011;22448;51.298;6.430;2022-12-18T23:24:42;103.55;;;41.40;;
35969;SDS011;22448;51.298;6.430;2022-12-18T23:27:09;108.40;;;45.25;;
35969;SDS011;22448;51.298;6.430;2022-12-18T23:29:37;103.18;;;44.83;;
35969;SDS011;22448;51.298;6.430;2022-12-18T23:32:05;105.40;;;43.88;;
35969;SDS011;22448;51.298;6.430;2022-12-18T23:34:32;106.03;;;43.63;;
35969;SDS011;22448;51.298;6.430;2022-12-18T23:36:59;94.70;;;42.33;;
35969;SDS011;22448;51.298;6.430;2022-12-18T23:39:29;101.75;;;43.53;;
35969;SDS011;22448;51.298;6.430;2022-12-18T23:41:56;104.05;;;42.13;;
35969;SDS011;22448;51.298;6.430;2022-12-18T23:44:23;101.88;;;43.40;;
35969;SDS011;22448;51.298;6.430;2022-12-18T23:46:50;108.50;;;43.78;;
35969;SDS011;22448;51.298;6.430;2022-12-18T23:49:18;100.32;;;43.47;;
35969;SDS011;22448;51.298;6.430;2022-12-18T23:51:45;103.25;;;42.10;;
35969;SDS011;22448;51.298;6.430;2022-12-18T23:54:11;100.65;;;44.83;;
35969;SDS011;22448;51.298;6.430;2022-12-18T23:56:38;102.30;;;44.33;;
35969;SDS011;22448;51.298;6.430;2022-12-18T23:59:05;91.38;;;40.50;;
